sensor_id;sensor_type;location;lat;lon;timestamp;P1;durP1;ratioP1;P2;durP2;ratioP2
7961;SDS011;4026;43.652;24.906;2022-09-09T00:00:11;1.13;;;1.03;;
7961;SDS011;4026;43.652;24.906;2022-09-09T00:02:40;1.47;;;1.30;;
7961;SDS011;4026;43.652;24.906;2022-09-09T00:05:14;1.30;;;1.13;;
7961;SDS011;4026;43.652;24.906;2022-09-09T00:07:48;1.37;;;1.23;;
7961;SDS011;4026;43.652;24.906;2022-09-09T00:10:19;1.63;;;1.50;;
7961;SDS011;4026;43.652;24.906;2022-09-09T00:12:55;1.63;;;1.33;;
7961;SDS011;4026;43.652;24.906;2022-09-09T00:15:28;1.87;;;1.33;;
7961;SDS011;4026;43.652;24.906;2022-09-09T00:18:03;1.27;;;1.17;;
7961;SDS011;4026;43.652;24.906;2022-09-09T00:20:42;1.33;;;1.23;;
7961;SDS011;4026;43.652;24.906;2022-09-09T00:23:17;1.40;;;1.30;;
7961;SDS011;4026;43.652;24.906;2022-09-09T00:25:50;1.93;;;1.30;;
7961;SDS011;4026;43.652;24.906;2022-09-09T00:28:24;1.30;;;1.20;;
7961;SDS011;4026;43.652;24.906;2022-09-09T00:30:55;1.70;;;1.30;;
7961;SDS011;4026;43.652;24.906;2022-09-09T00:33:23;1.37;;;1.20;;
7961;SDS011;4026;43.652;24.906;2022-09-09T00:35:54;1.57;;;1.47;;
7961;SDS011;4026;43.652;24.906;2022-09-09T00:38:24;1.77;;;1.67;;
7961;SDS011;4026;43.652;24.906;2022-09-09T00:40:55;1.60;;;1.50;;
7961;SDS011;4026;43.652;24.906;2022-09-09T00:43:29;1.73;;;1.23;;
7961;SDS011;4026;43.652;24.906;2022-09-09T00:48:50;1.50;;;1.37;;
7961;SDS011;4026;43.652;24.906;2022-09-09T00:51:27;1.60;;;1.50;;
7961;SDS011;4026;43.652;24.906;2022-09-09T00:54:12;2.37;;;1.60;;
7961;SDS011;4026;43.652;24.906;2022-09-09T00:56:53;2.03;;;1.50;;
7961;SDS011;4026;43.652;24.906;2022-09-09T00:59:31;1.33;;;1.23;;
7961;SDS011;4026;43.652;24.906;2022-09-09T01:02:07;1.57;;;1.47;;
7961;SDS011;4026;43.652;24.906;2022-09-09T01:04:42;1.63;;;1.30;;
7961;SDS011;4026;43.652;24.906;2022-09-09T01:07:13;1.97;;;1.50;;
7961;SDS011;4026;43.652;24.906;2022-09-09T01:09:51;2.17;;;1.50;;
7961;SDS011;4026;43.652;24.906;2022-09-09T01:15:09;1.47;;;1.37;;
7961;SDS011;4026;43.652;24.906;2022-09-09T01:17:42;1.50;;;1.20;;
7961;SDS011;4026;43.652;24.906;2022-09-09T01:20:17;1.40;;;1.30;;
7961;SDS011;4026;43.652;24.906;2022-09-09T01:22:50;1.83;;;1.27;;
7961;SDS011;4026;43.652;24.906;2022-09-09T01:28:32;1.30;;;1.10;;
7961;SDS011;4026;43.652;24.906;2022-09-09T01:31:02;1.60;;;1.47;;
7961;SDS011;4026;43.652;24.906;2022-09-09T01:33:30;1.33;;;1.20;;
7961;SDS011;4026;43.652;24.906;2022-09-09T01:35:59;1.67;;;1.30;;
7961;SDS011;4026;43.652;24.906;2022-09-09T01:38:31;1.30;;;1.20;;
7961;SDS011;4026;43.652;24.906;2022-09-09T01:40:59;2.10;;;1.27;;
7961;SDS011;4026;43.652;24.906;2022-09-09T01:43:27;1.80;;;1.43;;
7961;SDS011;4026;43.652;24.906;2022-09-09T01:45:58;1.30;;;0.90;;
7961;SDS011;4026;43.652;24.906;2022-09-09T01:48:27;1.43;;;1.33;;
7961;SDS011;4026;43.652;24.906;2022-09-09T01:50:54;2.17;;;1.50;;
7961;SDS011;4026;43.652;24.906;2022-09-09T01:53:22;1.33;;;1.23;;
7961;SDS011;4026;43.652;24.906;2022-09-09T01:55:51;1.50;;;1.30;;
7961;SDS011;4026;43.652;24.906;2022-09-09T01:58:31;1.07;;;1.00;;
7961;SDS011;4026;43.652;24.906;2022-09-09T02:01:08;1.70;;;1.30;;
7961;SDS011;4026;43.652;24.906;2022-09-09T02:03:43;1.33;;;1.10;;
7961;SDS011;4026;43.652;24.906;2022-09-09T02:06:14;1.60;;;1.27;;
7961;SDS011;4026;43.652;24.906;2022-09-09T02:08:52;1.70;;;1.50;;
7961;SDS011;4026;43.652;24.906;2022-09-09T02:11:22;1.30;;;1.20;;
7961;SDS011;4026;43.652;24.906;2022-09-09T02:13:51;1.87;;;1.27;;
7961;SDS011;4026;43.652;24.906;2022-09-09T02:16:23;1.77;;;1.30;;
7961;SDS011;4026;43.652;24.906;2022-09-09T02:18:56;1.60;;;1.30;;
7961;SDS011;4026;43.652;24.906;2022-09-09T02:21:27;1.13;;;1.03;;
7961;SDS011;4026;43.652;24.906;2022-09-09T02:23:56;1.50;;;1.40;;
7961;SDS011;4026;43.652;24.906;2022-09-09T02:26:29;1.30;;;1.17;;
7961;SDS011;4026;43.652;24.906;2022-09-09T02:29:00;1.30;;;1.20;;
7961;SDS011;4026;43.652;24.906;2022-09-09T02:31:30;1.20;;;1.10;;
7961;SDS011;4026;43.652;24.906;2022-09-09T02:34:01;1.60;;;1.47;;
7961;SDS011;4026;43.652;24.906;2022-09-09T02:36:31;1.87;;;1.27;;
7961;SDS011;4026;43.652;24.906;2022-09-09T02:39:00;2.00;;;1.50;;
7961;SDS011;4026;43.652;24.906;2022-09-09T02:41:28;0.97;;;0.90;;
7961;SDS011;4026;43.652;24.906;2022-09-09T02:43:58;1.83;;;1.27;;
7961;SDS011;4026;43.652;24.906;2022-09-09T02:46:35;1.20;;;1.10;;
7961;SDS011;4026;43.652;24.906;2022-09-09T02:49:16;1.47;;;1.20;;
7961;SDS011;4026;43.652;24.906;2022-09-09T02:51:50;1.63;;;1.13;;
7961;SDS011;4026;43.652;24.906;2022-09-09T02:54:26;1.30;;;1.20;;
7961;SDS011;4026;43.652;24.906;2022-09-09T02:56:56;1.43;;;1.30;;
7961;SDS011;4026;43.652;24.906;2022-09-09T02:59:29;1.60;;;1.20;;
7961;SDS011;4026;43.652;24.906;2022-09-09T03:01:58;1.53;;;1.10;;
7961;SDS011;4026;43.652;24.906;2022-09-09T03:04:26;1.17;;;1.07;;
7961;SDS011;4026;43.652;24.906;2022-09-09T03:06:53;1.70;;;1.43;;
7961;SDS011;4026;43.652;24.906;2022-09-09T03:09:20;1.73;;;1.40;;
7961;SDS011;4026;43.652;24.906;2022-09-09T03:11:47;1.43;;;1.20;;
7961;SDS011;4026;43.652;24.906;2022-09-09T03:14:14;1.50;;;1.30;;
7961;SDS011;4026;43.652;24.906;2022-09-09T03:16:41;1.37;;;1.20;;
7961;SDS011;4026;43.652;24.906;2022-09-09T03:19:10;1.93;;;1.30;;
7961;SDS011;4026;43.652;24.906;2022-09-09T03:21:37;1.50;;;1.17;;
7961;SDS011;4026;43.652;24.906;2022-09-09T03:24:04;1.47;;;1.37;;
7961;SDS011;4026;43.652;24.906;2022-09-09T03:26:31;1.73;;;1.27;;
7961;SDS011;4026;43.652;24.906;2022-09-09T03:28:58;1.40;;;1.17;;
7961;SDS011;4026;43.652;24.906;2022-09-09T03:31:26;1.37;;;1.20;;
7961;SDS011;4026;43.652;24.906;2022-09-09T03:33:55;1.57;;;1.30;;
7961;SDS011;4026;43.652;24.906;2022-09-09T03:36:24;1.30;;;1.07;;
7961;SDS011;4026;43.652;24.906;2022-09-09T03:38:53;1.20;;;1.07;;
7961;SDS011;4026;43.652;24.906;2022-09-09T03:41:20;1.37;;;1.27;;
7961;SDS011;4026;43.652;24.906;2022-09-09T03:43:49;1.40;;;1.10;;
7961;SDS011;4026;43.652;24.906;2022-09-09T03:46:16;1.30;;;1.20;;
7961;SDS011;4026;43.652;24.906;2022-09-09T03:48:43;1.43;;;1.30;;
7961;SDS011;4026;43.652;24.906;2022-09-09T03:51:10;1.50;;;1.40;;
7961;SDS011;4026;43.652;24.906;2022-09-09T03:53:38;1.53;;;1.30;;
7961;SDS011;4026;43.652;24.906;2022-09-09T03:56:06;1.40;;;1.30;;
7961;SDS011;4026;43.652;24.906;2022-09-09T03:58:34;1.40;;;1.30;;
7961;SDS011;4026;43.652;24.906;2022-09-09T04:01:02;1.30;;;1.20;;
7961;SDS011;4026;43.652;24.906;2022-09-09T04:03:31;1.60;;;1.10;;
7961;SDS011;4026;43.652;24.906;2022-09-09T04:05:59;1.57;;;1.47;;
7961;SDS011;4026;43.652;24.906;2022-09-09T04:08:27;1.57;;;1.17;;
7961;SDS011;4026;43.652;24.906;2022-09-09T04:10:57;1.47;;;1.37;;
7961;SDS011;4026;43.652;24.906;2022-09-09T04:13:24;2.57;;;1.40;;
7961;SDS011;4026;43.652;24.906;2022-09-09T04:15:52;1.93;;;1.30;;
7961;SDS011;4026;43.652;24.906;2022-09-09T04:18:19;1.87;;;1.30;;
7961;SDS011;4026;43.652;24.906;2022-09-09T04:20:47;2.00;;;1.40;;
7961;SDS011;4026;43.652;24.906;2022-09-09T04:23:14;1.73;;;1.27;;
7961;SDS011;4026;43.652;24.906;2022-09-09T04:25:43;1.63;;;1.17;;
7961;SDS011;4026;43.652;24.906;2022-09-09T04:28:13;1.43;;;1.30;;
7961;SDS011;4026;43.652;24.906;2022-09-09T04:30:40;1.47;;;1.27;;
7961;SDS011;4026;43.652;24.906;2022-09-09T04:33:07;1.53;;;1.27;;
7961;SDS011;4026;43.652;24.906;2022-09-09T04:35:34;2.20;;;1.40;;
7961;SDS011;4026;43.652;24.906;2022-09-09T04:38:02;1.20;;;1.10;;
7961;SDS011;4026;43.652;24.906;2022-09-09T04:40:29;1.43;;;1.27;;
7961;SDS011;4026;43.652;24.906;2022-09-09T04:42:58;1.40;;;1.20;;
7961;SDS011;4026;43.652;24.906;2022-09-09T04:45:26;2.07;;;1.53;;
7961;SDS011;4026;43.652;24.906;2022-09-09T04:47:53;1.47;;;1.17;;
7961;SDS011;4026;43.652;24.906;2022-09-09T04:50:20;2.40;;;1.27;;
7961;SDS011;4026;43.652;24.906;2022-09-09T04:52:47;1.63;;;1.30;;
7961;SDS011;4026;43.652;24.906;2022-09-09T04:55:14;1.60;;;1.50;;
7961;SDS011;4026;43.652;24.906;2022-09-09T04:57:41;1.20;;;1.10;;
7961;SDS011;4026;43.652;24.906;2022-09-09T05:00:08;1.37;;;1.27;;
7961;SDS011;4026;43.652;24.906;2022-09-09T05:02:38;1.40;;;1.30;;
7961;SDS011;4026;43.652;24.906;2022-09-09T05:05:05;1.40;;;1.30;;
7961;SDS011;4026;43.652;24.906;2022-09-09T05:07:32;1.97;;;1.20;;
7961;SDS011;4026;43.652;24.906;2022-09-09T05:09:59;1.83;;;1.27;;
7961;SDS011;4026;43.652;24.906;2022-09-09T05:12:28;1.67;;;1.37;;
7961;SDS011;4026;43.652;24.906;2022-09-09T05:14:55;1.20;;;1.10;;
7961;SDS011;4026;43.652;24.906;2022-09-09T05:17:22;1.57;;;1.40;;
7961;SDS011;4026;43.652;24.906;2022-09-09T05:19:50;1.37;;;1.20;;
7961;SDS011;4026;43.652;24.906;2022-09-09T05:22:18;1.20;;;1.10;;
7961;SDS011;4026;43.652;24.906;2022-09-09T05:24:46;1.52;;;1.30;;
7961;SDS011;4026;43.652;24.906;2022-09-09T05:27:16;1.30;;;1.20;;
7961;SDS011;4026;43.652;24.906;2022-09-09T05:29:43;1.25;;;1.13;;
7961;SDS011;4026;43.652;24.906;2022-09-09T05:32:10;1.73;;;1.42;;
7961;SDS011;4026;43.652;24.906;2022-09-09T05:34:37;1.30;;;1.20;;
7961;SDS011;4026;43.652;24.906;2022-09-09T05:37:05;1.75;;;1.40;;
7961;SDS011;4026;43.652;24.906;2022-09-09T05:39:33;1.30;;;1.17;;
7961;SDS011;4026;43.652;24.906;2022-09-09T05:42:01;1.40;;;1.30;;
7961;SDS011;4026;43.652;24.906;2022-09-09T05:44:30;1.55;;;1.40;;
7961;SDS011;4026;43.652;24.906;2022-09-09T05:46:57;1.73;;;1.35;;
7961;SDS011;4026;43.652;24.906;2022-09-09T05:49:24;1.70;;;1.50;;
7961;SDS011;4026;43.652;24.906;2022-09-09T05:51:51;1.50;;;1.40;;
7961;SDS011;4026;43.652;24.906;2022-09-09T05:54:19;1.90;;;1.63;;
7961;SDS011;4026;43.652;24.906;2022-09-09T05:56:46;1.40;;;1.20;;
7961;SDS011;4026;43.652;24.906;2022-09-09T05:59:14;1.75;;;1.20;;
7961;SDS011;4026;43.652;24.906;2022-09-09T06:01:42;1.13;;;1.02;;
7961;SDS011;4026;43.652;24.906;2022-09-09T06:04:10;1.77;;;1.40;;
7961;SDS011;4026;43.652;24.906;2022-09-09T06:06:37;1.60;;;1.30;;
7961;SDS011;4026;43.652;24.906;2022-09-09T06:09:05;2.15;;;1.52;;
7961;SDS011;4026;43.652;24.906;2022-09-09T06:11:36;1.77;;;1.38;;
7961;SDS011;4026;43.652;24.906;2022-09-09T06:14:04;1.63;;;1.40;;
7961;SDS011;4026;43.652;24.906;2022-09-09T06:16:32;1.70;;;1.30;;
7961;SDS011;4026;43.652;24.906;2022-09-09T06:18:59;1.30;;;1.20;;
7961;SDS011;4026;43.652;24.906;2022-09-09T06:21:28;1.70;;;1.50;;
7961;SDS011;4026;43.652;24.906;2022-09-09T06:23:57;1.42;;;1.25;;
7961;SDS011;4026;43.652;24.906;2022-09-09T06:26:25;1.63;;;1.52;;
7961;SDS011;4026;43.652;24.906;2022-09-09T06:28:54;1.67;;;1.40;;
7961;SDS011;4026;43.652;24.906;2022-09-09T06:31:23;1.40;;;1.30;;
7961;SDS011;4026;43.652;24.906;2022-09-09T06:33:55;1.50;;;1.40;;
7961;SDS011;4026;43.652;24.906;2022-09-09T06:36:23;2.38;;;1.60;;
7961;SDS011;4026;43.652;24.906;2022-09-09T06:38:51;2.25;;;1.52;;
7961;SDS011;4026;43.652;24.906;2022-09-09T06:41:19;1.40;;;1.30;;
7961;SDS011;4026;43.652;24.906;2022-09-09T06:43:47;2.03;;;1.55;;
7961;SDS011;4026;43.652;24.906;2022-09-09T06:46:17;2.08;;;1.65;;
7961;SDS011;4026;43.652;24.906;2022-09-09T06:48:45;1.63;;;1.52;;
7961;SDS011;4026;43.652;24.906;2022-09-09T06:51:13;1.58;;;1.40;;
7961;SDS011;4026;43.652;24.906;2022-09-09T06:53:42;2.13;;;1.55;;
7961;SDS011;4026;43.652;24.906;2022-09-09T06:58:56;1.90;;;1.42;;
7961;SDS011;4026;43.652;24.906;2022-09-09T07:01:28;1.73;;;1.40;;
7961;SDS011;4026;43.652;24.906;2022-09-09T07:03:57;1.73;;;1.33;;
7961;SDS011;4026;43.652;24.906;2022-09-09T07:06:26;1.48;;;1.30;;
7961;SDS011;4026;43.652;24.906;2022-09-09T07:08:54;1.60;;;1.40;;
7961;SDS011;4026;43.652;24.906;2022-09-09T07:11:23;1.63;;;1.42;;
7961;SDS011;4026;43.652;24.906;2022-09-09T07:13:52;1.42;;;1.33;;
7961;SDS011;4026;43.652;24.906;2022-09-09T07:16:21;1.55;;;1.40;;
7961;SDS011;4026;43.652;24.906;2022-09-09T07:18:51;1.50;;;1.40;;
7961;SDS011;4026;43.652;24.906;2022-09-09T07:21:23;1.48;;;1.35;;
7961;SDS011;4026;43.652;24.906;2022-09-09T07:23:51;1.60;;;1.50;;
7961;SDS011;4026;43.652;24.906;2022-09-09T07:26:19;1.60;;;1.50;;
7961;SDS011;4026;43.652;24.906;2022-09-09T07:28:47;1.70;;;1.60;;
7961;SDS011;4026;43.652;24.906;2022-09-09T07:31:15;4.72;;;1.73;;
7961;SDS011;4026;43.652;24.906;2022-09-09T07:33:43;1.52;;;1.42;;
7961;SDS011;4026;43.652;24.906;2022-09-09T07:36:13;2.53;;;1.70;;
7961;SDS011;4026;43.652;24.906;2022-09-09T07:38:44;2.20;;;1.30;;
7961;SDS011;4026;43.652;24.906;2022-09-09T07:41:13;1.50;;;1.40;;
7961;SDS011;4026;43.652;24.906;2022-09-09T07:43:42;1.90;;;1.40;;
7961;SDS011;4026;43.652;24.906;2022-09-09T07:46:10;1.70;;;1.50;;
7961;SDS011;4026;43.652;24.906;2022-09-09T07:48:38;1.95;;;1.50;;
7961;SDS011;4026;43.652;24.906;2022-09-09T07:51:10;2.20;;;1.40;;
7961;SDS011;4026;43.652;24.906;2022-09-09T07:53:40;1.90;;;1.42;;
7961;SDS011;4026;43.652;24.906;2022-09-09T07:56:07;1.95;;;1.50;;
7961;SDS011;4026;43.652;24.906;2022-09-09T07:58:35;2.22;;;1.48;;
7961;SDS011;4026;43.652;24.906;2022-09-09T08:01:06;1.92;;;1.58;;
7961;SDS011;4026;43.652;24.906;2022-09-09T08:03:34;2.00;;;1.70;;
7961;SDS011;4026;43.652;24.906;2022-09-09T08:06:02;2.28;;;1.75;;
7961;SDS011;4026;43.652;24.906;2022-09-09T08:08:29;1.45;;;1.33;;
7961;SDS011;4026;43.652;24.906;2022-09-09T08:11:04;2.50;;;1.67;;
7961;SDS011;4026;43.652;24.906;2022-09-09T08:13:34;1.80;;;1.60;;
7961;SDS011;4026;43.652;24.906;2022-09-09T08:16:05;1.60;;;1.42;;
7961;SDS011;4026;43.652;24.906;2022-09-09T08:18:34;1.75;;;1.40;;
7961;SDS011;4026;43.652;24.906;2022-09-09T08:21:05;1.85;;;1.58;;
7961;SDS011;4026;43.652;24.906;2022-09-09T08:23:33;1.60;;;1.42;;
7961;SDS011;4026;43.652;24.906;2022-09-09T08:26:05;2.95;;;1.70;;
7961;SDS011;4026;43.652;24.906;2022-09-09T08:28:34;2.15;;;1.77;;
7961;SDS011;4026;43.652;24.906;2022-09-09T08:31:08;1.65;;;1.45;;
7961;SDS011;4026;43.652;24.906;2022-09-09T08:33:36;1.70;;;1.60;;
7961;SDS011;4026;43.652;24.906;2022-09-09T08:36:04;1.40;;;1.30;;
7961;SDS011;4026;43.652;24.906;2022-09-09T08:38:34;1.45;;;1.30;;
7961;SDS011;4026;43.652;24.906;2022-09-09T08:41:11;2.15;;;1.42;;
7961;SDS011;4026;43.652;24.906;2022-09-09T08:43:58;1.88;;;1.67;;
7961;SDS011;4026;43.652;24.906;2022-09-09T08:46:30;1.50;;;1.40;;
7961;SDS011;4026;43.652;24.906;2022-09-09T08:49:06;1.50;;;1.40;;
7961;SDS011;4026;43.652;24.906;2022-09-09T08:51:45;2.50;;;1.52;;
7961;SDS011;4026;43.652;24.906;2022-09-09T08:54:15;1.80;;;1.52;;
7961;SDS011;4026;43.652;24.906;2022-09-09T08:56:43;1.67;;;1.50;;
7961;SDS011;4026;43.652;24.906;2022-09-09T08:59:11;1.67;;;1.45;;
7961;SDS011;4026;43.652;24.906;2022-09-09T09:04:33;1.58;;;1.48;;
7961;SDS011;4026;43.652;24.906;2022-09-09T09:07:11;1.63;;;1.50;;
7961;SDS011;4026;43.652;24.906;2022-09-09T09:09:50;1.60;;;1.50;;
7961;SDS011;4026;43.652;24.906;2022-09-09T09:12:27;2.13;;;1.60;;
7961;SDS011;4026;43.652;24.906;2022-09-09T09:14:58;2.17;;;1.60;;
7961;SDS011;4026;43.652;24.906;2022-09-09T09:17:26;2.10;;;1.60;;
7961;SDS011;4026;43.652;24.906;2022-09-09T09:19:58;1.92;;;1.52;;
7961;SDS011;4026;43.652;24.906;2022-09-09T09:22:26;1.35;;;1.25;;
7961;SDS011;4026;43.652;24.906;2022-09-09T09:25:00;2.03;;;1.80;;
7961;SDS011;4026;43.652;24.906;2022-09-09T09:27:38;1.77;;;1.55;;
7961;SDS011;4026;43.652;24.906;2022-09-09T09:30:13;1.60;;;1.40;;
7961;SDS011;4026;43.652;24.906;2022-09-09T09:32:52;2.03;;;1.50;;
7961;SDS011;4026;43.652;24.906;2022-09-09T09:35:21;1.73;;;1.50;;
7961;SDS011;4026;43.652;24.906;2022-09-09T09:37:49;2.40;;;1.85;;
7961;SDS011;4026;43.652;24.906;2022-09-09T09:40:16;2.00;;;1.65;;
7961;SDS011;4026;43.652;24.906;2022-09-09T09:42:51;2.20;;;1.80;;
7961;SDS011;4026;43.652;24.906;2022-09-09T09:45:26;2.15;;;1.67;;
7961;SDS011;4026;43.652;24.906;2022-09-09T09:48:00;1.90;;;1.63;;
7961;SDS011;4026;43.652;24.906;2022-09-09T09:50:28;1.98;;;1.60;;
7961;SDS011;4026;43.652;24.906;2022-09-09T09:52:57;1.60;;;1.50;;
7961;SDS011;4026;43.652;24.906;2022-09-09T09:55:26;1.95;;;1.52;;
7961;SDS011;4026;43.652;24.906;2022-09-09T09:58:02;1.70;;;1.48;;
7961;SDS011;4026;43.652;24.906;2022-09-09T10:00:29;1.77;;;1.50;;
7961;SDS011;4026;43.652;24.906;2022-09-09T10:02:57;1.77;;;1.67;;
7961;SDS011;4026;43.652;24.906;2022-09-09T10:05:26;2.63;;;1.67;;
7961;SDS011;4026;43.652;24.906;2022-09-09T10:08:02;1.60;;;1.45;;
7961;SDS011;4026;43.652;24.906;2022-09-09T10:10:42;2.22;;;1.58;;
7961;SDS011;4026;43.652;24.906;2022-09-09T10:13:20;1.65;;;1.55;;
7961;SDS011;4026;43.652;24.906;2022-09-09T10:15:56;1.85;;;1.65;;
7961;SDS011;4026;43.652;24.906;2022-09-09T10:18:36;2.20;;;1.70;;
7961;SDS011;4026;43.652;24.906;2022-09-09T10:21:19;2.00;;;1.80;;
7961;SDS011;4026;43.652;24.906;2022-09-09T10:23:59;1.77;;;1.50;;
7961;SDS011;4026;43.652;24.906;2022-09-09T10:26:39;1.83;;;1.60;;
7961;SDS011;4026;43.652;24.906;2022-09-09T10:29:22;3.78;;;1.67;;
7961;SDS011;4026;43.652;24.906;2022-09-09T10:31:59;2.03;;;1.77;;
7961;SDS011;4026;43.652;24.906;2022-09-09T10:34:41;1.77;;;1.55;;
7961;SDS011;4026;43.652;24.906;2022-09-09T10:37:24;2.35;;;1.92;;
7961;SDS011;4026;43.652;24.906;2022-09-09T10:40:08;2.42;;;1.67;;
7961;SDS011;4026;43.652;24.906;2022-09-09T10:42:51;2.08;;;1.67;;
7961;SDS011;4026;43.652;24.906;2022-09-09T10:45:26;2.30;;;1.77;;
7961;SDS011;4026;43.652;24.906;2022-09-09T10:50:59;2.25;;;1.90;;
7961;SDS011;4026;43.652;24.906;2022-09-09T10:53:39;1.95;;;1.70;;
7961;SDS011;4026;43.652;24.906;2022-09-09T10:56:15;2.22;;;1.85;;
7961;SDS011;4026;43.652;24.906;2022-09-09T10:58:46;3.20;;;1.85;;
7961;SDS011;4026;43.652;24.906;2022-09-09T11:01:18;3.47;;;1.80;;
7961;SDS011;4026;43.652;24.906;2022-09-09T11:03:50;2.40;;;1.95;;
7961;SDS011;4026;43.652;24.906;2022-09-09T11:06:23;2.35;;;1.75;;
7961;SDS011;4026;43.652;24.906;2022-09-09T11:08:54;1.67;;;1.58;;
7961;SDS011;4026;43.652;24.906;2022-09-09T11:11:26;2.63;;;2.03;;
7961;SDS011;4026;43.652;24.906;2022-09-09T11:13:57;2.08;;;1.88;;
7961;SDS011;4026;43.652;24.906;2022-09-09T11:16:30;2.10;;;1.90;;
7961;SDS011;4026;43.652;24.906;2022-09-09T11:19:04;2.38;;;1.75;;
7961;SDS011;4026;43.652;24.906;2022-09-09T11:21:42;1.95;;;1.70;;
7961;SDS011;4026;43.652;24.906;2022-09-09T11:24:13;2.95;;;1.95;;
7961;SDS011;4026;43.652;24.906;2022-09-09T11:26:46;2.15;;;1.95;;
7961;SDS011;4026;43.652;24.906;2022-09-09T11:29:22;2.40;;;2.10;;
7961;SDS011;4026;43.652;24.906;2022-09-09T11:32:12;2.00;;;1.70;;
7961;SDS011;4026;43.652;24.906;2022-09-09T11:34:54;2.72;;;2.10;;
7961;SDS011;4026;43.652;24.906;2022-09-09T11:37:35;1.90;;;1.58;;
7961;SDS011;4026;43.652;24.906;2022-09-09T11:40:19;2.30;;;1.85;;
7961;SDS011;4026;43.652;24.906;2022-09-09T11:42:49;2.47;;;2.00;;
7961;SDS011;4026;43.652;24.906;2022-09-09T11:45:29;2.20;;;1.77;;
7961;SDS011;4026;43.652;24.906;2022-09-09T11:47:58;2.00;;;1.63;;
7961;SDS011;4026;43.652;24.906;2022-09-09T11:50:28;2.30;;;1.98;;
7961;SDS011;4026;43.652;24.906;2022-09-09T11:53:03;2.30;;;1.80;;
7961;SDS011;4026;43.652;24.906;2022-09-09T11:55:32;2.30;;;1.80;;
7961;SDS011;4026;43.652;24.906;2022-09-09T11:58:02;2.10;;;1.75;;
7961;SDS011;4026;43.652;24.906;2022-09-09T12:00:31;2.50;;;2.00;;
7961;SDS011;4026;43.652;24.906;2022-09-09T12:03:03;2.72;;;2.00;;
7961;SDS011;4026;43.652;24.906;2022-09-09T12:05:35;2.17;;;1.88;;
7961;SDS011;4026;43.652;24.906;2022-09-09T12:08:04;3.00;;;2.40;;
7961;SDS011;4026;43.652;24.906;2022-09-09T12:10:35;2.95;;;2.10;;
7961;SDS011;4026;43.652;24.906;2022-09-09T12:13:08;2.63;;;1.90;;
7961;SDS011;4026;43.652;24.906;2022-09-09T12:15:46;2.72;;;1.90;;
7961;SDS011;4026;43.652;24.906;2022-09-09T12:18:18;2.13;;;1.77;;
7961;SDS011;4026;43.652;24.906;2022-09-09T12:20:55;2.17;;;1.92;;
7961;SDS011;4026;43.652;24.906;2022-09-09T12:23:32;2.53;;;2.10;;
7961;SDS011;4026;43.652;24.906;2022-09-09T12:26:12;2.55;;;2.00;;
7961;SDS011;4026;43.652;24.906;2022-09-09T12:29:00;3.70;;;1.92;;
7961;SDS011;4026;43.652;24.906;2022-09-09T12:31:36;2.00;;;1.70;;
7961;SDS011;4026;43.652;24.906;2022-09-09T12:34:13;2.90;;;2.00;;
7961;SDS011;4026;43.652;24.906;2022-09-09T12:36:42;2.55;;;2.22;;
7961;SDS011;4026;43.652;24.906;2022-09-09T12:39:16;2.65;;;2.17;;
7961;SDS011;4026;43.652;24.906;2022-09-09T12:41:51;3.13;;;2.20;;
7961;SDS011;4026;43.652;24.906;2022-09-09T12:44:22;2.60;;;2.13;;
7961;SDS011;4026;43.652;24.906;2022-09-09T12:46:50;2.97;;;2.17;;
7961;SDS011;4026;43.652;24.906;2022-09-09T12:49:26;3.83;;;2.58;;
7961;SDS011;4026;43.652;24.906;2022-09-09T12:51:56;2.25;;;2.00;;
7961;SDS011;4026;43.652;24.906;2022-09-09T12:54:23;2.47;;;2.03;;
7961;SDS011;4026;43.652;24.906;2022-09-09T12:56:50;2.60;;;2.17;;
7961;SDS011;4026;43.652;24.906;2022-09-09T12:59:22;2.42;;;2.10;;
7961;SDS011;4026;43.652;24.906;2022-09-09T13:01:55;2.53;;;1.90;;
7961;SDS011;4026;43.652;24.906;2022-09-09T13:04:22;2.40;;;2.08;;
7961;SDS011;4026;43.652;24.906;2022-09-09T13:06:51;2.78;;;2.15;;
7961;SDS011;4026;43.652;24.906;2022-09-09T13:09:18;2.58;;;2.22;;
7961;SDS011;4026;43.652;24.906;2022-09-09T13:11:46;2.22;;;1.85;;
7961;SDS011;4026;43.652;24.906;2022-09-09T13:14:17;2.50;;;1.95;;
7961;SDS011;4026;43.652;24.906;2022-09-09T13:16:54;2.15;;;1.95;;
7961;SDS011;4026;43.652;24.906;2022-09-09T13:19:23;2.67;;;1.90;;
7961;SDS011;4026;43.652;24.906;2022-09-09T13:21:55;2.20;;;1.98;;
7961;SDS011;4026;43.652;24.906;2022-09-09T13:24:25;2.20;;;1.95;;
7961;SDS011;4026;43.652;24.906;2022-09-09T13:26:55;2.22;;;1.90;;
7961;SDS011;4026;43.652;24.906;2022-09-09T13:29:22;2.45;;;1.83;;
7961;SDS011;4026;43.652;24.906;2022-09-09T13:31:49;2.60;;;1.90;;
7961;SDS011;4026;43.652;24.906;2022-09-09T13:34:28;2.58;;;2.03;;
7961;SDS011;4026;43.652;24.906;2022-09-09T13:36:59;2.45;;;1.83;;
7961;SDS011;4026;43.652;24.906;2022-09-09T13:39:31;2.35;;;2.00;;
7961;SDS011;4026;43.652;24.906;2022-09-09T13:41:59;1.90;;;1.67;;
7961;SDS011;4026;43.652;24.906;2022-09-09T13:44:28;2.85;;;2.10;;
7961;SDS011;4026;43.652;24.906;2022-09-09T13:47:02;3.45;;;2.50;;
7961;SDS011;4026;43.652;24.906;2022-09-09T13:49:30;2.88;;;1.95;;
7961;SDS011;4026;43.652;24.906;2022-09-09T13:52:08;2.33;;;1.80;;
7961;SDS011;4026;43.652;24.906;2022-09-09T13:54:38;2.30;;;1.90;;
7961;SDS011;4026;43.652;24.906;2022-09-09T13:57:11;2.03;;;1.80;;
7961;SDS011;4026;43.652;24.906;2022-09-09T13:59:42;2.72;;;1.92;;
7961;SDS011;4026;43.652;24.906;2022-09-09T14:02:09;2.13;;;1.73;;
7961;SDS011;4026;43.652;24.906;2022-09-09T14:04:36;2.72;;;2.05;;
7961;SDS011;4026;43.652;24.906;2022-09-09T14:07:03;2.45;;;1.67;;
7961;SDS011;4026;43.652;24.906;2022-09-09T14:09:31;2.80;;;2.03;;
7961;SDS011;4026;43.652;24.906;2022-09-09T14:11:58;2.20;;;1.98;;
7961;SDS011;4026;43.652;24.906;2022-09-09T14:14:25;2.63;;;2.20;;
7961;SDS011;4026;43.652;24.906;2022-09-09T14:16:52;2.55;;;2.05;;
7961;SDS011;4026;43.652;24.906;2022-09-09T14:19:19;2.08;;;1.88;;
7961;SDS011;4026;43.652;24.906;2022-09-09T14:21:46;2.72;;;2.17;;
7961;SDS011;4026;43.652;24.906;2022-09-09T14:24:12;2.88;;;1.85;;
7961;SDS011;4026;43.652;24.906;2022-09-09T14:26:41;2.53;;;1.75;;
7961;SDS011;4026;43.652;24.906;2022-09-09T14:29:07;4.68;;;2.05;;
7961;SDS011;4026;43.652;24.906;2022-09-09T14:31:35;2.00;;;1.80;;
7961;SDS011;4026;43.652;24.906;2022-09-09T14:34:01;2.80;;;2.30;;
7961;SDS011;4026;43.652;24.906;2022-09-09T14:36:28;2.40;;;1.80;;
7961;SDS011;4026;43.652;24.906;2022-09-09T14:38:55;3.08;;;2.42;;
7961;SDS011;4026;43.652;24.906;2022-09-09T14:41:22;3.05;;;2.30;;
7961;SDS011;4026;43.652;24.906;2022-09-09T14:43:51;1.88;;;1.70;;
7961;SDS011;4026;43.652;24.906;2022-09-09T14:46:19;3.08;;;1.90;;
7961;SDS011;4026;43.652;24.906;2022-09-09T14:48:46;2.70;;;2.13;;
7961;SDS011;4026;43.652;24.906;2022-09-09T14:51:15;3.03;;;1.92;;
7961;SDS011;4026;43.652;24.906;2022-09-09T14:53:44;2.33;;;1.90;;
7961;SDS011;4026;43.652;24.906;2022-09-09T14:56:14;2.08;;;1.60;;
7961;SDS011;4026;43.652;24.906;2022-09-09T14:58:42;2.58;;;1.92;;
7961;SDS011;4026;43.652;24.906;2022-09-09T15:01:11;1.92;;;1.73;;
7961;SDS011;4026;43.652;24.906;2022-09-09T15:03:41;2.60;;;2.10;;
7961;SDS011;4026;43.652;24.906;2022-09-09T15:06:09;2.90;;;2.00;;
7961;SDS011;4026;43.652;24.906;2022-09-09T15:08:38;3.22;;;2.33;;
7961;SDS011;4026;43.652;24.906;2022-09-09T15:11:06;2.95;;;2.10;;
7961;SDS011;4026;43.652;24.906;2022-09-09T15:13:33;2.17;;;1.80;;
7961;SDS011;4026;43.652;24.906;2022-09-09T15:16:06;2.47;;;1.88;;
7961;SDS011;4026;43.652;24.906;2022-09-09T15:18:35;2.10;;;1.90;;
7961;SDS011;4026;43.652;24.906;2022-09-09T15:21:05;3.60;;;2.10;;
7961;SDS011;4026;43.652;24.906;2022-09-09T15:23:32;2.47;;;1.92;;
7961;SDS011;4026;43.652;24.906;2022-09-09T15:25:59;3.72;;;2.28;;
7961;SDS011;4026;43.652;24.906;2022-09-09T15:28:26;2.55;;;1.70;;
7961;SDS011;4026;43.652;24.906;2022-09-09T15:30:55;2.72;;;1.83;;
7961;SDS011;4026;43.652;24.906;2022-09-09T15:33:22;2.88;;;2.00;;
7961;SDS011;4026;43.652;24.906;2022-09-09T15:35:50;2.78;;;2.15;;
7961;SDS011;4026;43.652;24.906;2022-09-09T15:38:17;3.72;;;2.38;;